Time;durP1;ratioP1;P1;durP2;ratioP2;P2;SDS_P1;SDS_P2;PMS_P1;PMS_P2;Temp;Humidity;BMP_temperature;BMP_pressure;BME280_temperature;BME280_humidity;BME280_pressure;Samples;Min_cycle;Max_cycle;Signal;HPM_P1;HPM_P2
2022/01/10 00:04:02;;;;;;;25.35;14.95;;;20.50;61.40;;;;;;10625253;27;20224;-64
2022/01/10 00:09:07;;;;;;;28.58;16.17;;;20.50;61.40;;;;;;10627548;27;20108;-63
2022/01/10 00:14:12;;;;;;;33.85;17.13;;;20.40;61.20;;;;;;10593994;27;20060;-64
2022/01/10 00:19:17;;;;;;;31.67;15.50;;;20.30;61.10;;;;;;10627862;27;20047;-64
2022/01/10 00:24:22;;;;;;;41.33;14.55;;;20.30;61.10;;;;;;10626970;27;20043;-63
2022/01/10 00:29:27;;;;;;;30.40;14.10;;;20.30;61.20;;;;;;10625121;27;20051;-64
2022/01/10 00:34:32;;;;;;;24.08;12.35;;;20.20;61.20;;;;;;10623164;27;20055;-63
2022/01/10 00:39:37;;;;;;;28.10;12.10;;;20.20;61.30;;;;;;10625726;27;20096;-64
2022/01/10 00:44:51;;;;;;;28.38;11.43;;;20.20;61.40;;;;;;10627277;27;20054;-64
2022/01/10 00:49:55;;;;;;;27.70;10.52;;;20.20;61.60;;;;;;10626287;27;20047;-64
2022/01/10 00:55:00;;;;;;;20.52;10.40;;;20.10;61.70;;;;;;10626616;27;20051;-65
2022/01/10 01:00:07;;;;;;;21.83;10.70;;;20.10;61.90;;;;;;10607662;27;20055;-64
2022/01/10 01:05:16;;;;;;;25.87;11.17;;;20.10;62.00;;;;;;10625472;27;20048;-64
2022/01/10 01:15:44;;;;;;;22.90;11.18;;;20.00;62.30;;;;;;10608249;27;20043;-63
2022/01/10 01:26:14;;;;;;;21.45;9.68;;;20.00;62.60;;;;;;10624839;27;20047;-63
2022/01/10 01:31:19;;;;;;;25.92;10.02;;;19.90;62.70;;;;;;10625439;27;20107;-64
2022/01/10 01:36:25;;;;;;;26.85;10.55;;;19.90;62.80;;;;;;10624820;27;20051;-64
2022/01/10 01:46:39;;;;;;;;;;;19.80;62.90;;;;;;10590206;27;20042;-63
2022/01/10 01:51:44;;;;;;;27.80;10.18;;;19.90;63.00;;;;;;10606209;27;20329;-63
2022/01/10 01:56:49;;;;;;;17.92;9.10;;;19.80;63.10;;;;;;10605813;27;20047;-63
2022/01/10 02:01:54;;;;;;;21.70;10.00;;;19.70;63.10;;;;;;10606138;27;20047;-63
2022/01/10 02:07:00;;;;;;;22.38;9.32;;;19.70;63.10;;;;;;10624229;28;20475;-64
2022/01/10 02:12:11;;;;;;;21.02;9.90;;;19.80;63.20;;;;;;10590488;28;20039;-63
2022/01/10 02:17:22;;;;;;;19.08;9.65;;;19.70;63.30;;;;;;10624135;28;20055;-63
2022/01/10 02:22:42;;;;;;;15.60;8.60;;;19.70;63.30;;;;;;10590308;28;20043;-64
2022/01/10 02:28:16;;;;;;;15.98;8.60;;;19.70;63.40;;;;;;10588047;28;20047;-63
2022/01/10 02:33:26;;;;;;;16.17;8.63;;;19.70;63.50;;;;;;10623955;28;20067;-64
2022/01/10 02:38:34;;;;;;;15.15;8.45;;;19.60;63.50;;;;;;10605629;28;20281;-64
2022/01/10 02:43:39;;;;;;;;;;;19.60;63.60;;;;;;10605704;28;20487;-64
2022/01/10 02:48:47;;;;;;;15.13;8.80;;;19.60;63.70;;;;;;10605160;28;19919;-64
2022/01/10 02:53:52;;;;;;;15.10;8.63;;;19.60;63.80;;;;;;10627487;27;20043;-64
2022/01/10 02:59:04;;;;;;;14.50;8.30;;;19.60;63.80;;;;;;10612281;27;20047;-64
2022/01/10 03:04:17;;;;;;;13.75;8.07;;;19.50;63.80;;;;;;10612488;27;20084;-64
2022/01/10 03:09:25;;;;;;;15.43;7.63;;;19.50;63.80;;;;;;10612313;27;20088;-64
2022/01/10 03:14:30;;;;;;;17.73;8.57;;;19.50;63.90;;;;;;10612467;27;20064;-64
2022/01/10 03:19:39;;;;;;;17.42;8.32;;;19.40;63.90;;;;;;10632013;27;20093;-64
2022/01/10 03:24:44;;;;;;;12.25;7.97;;;19.40;63.90;;;;;;10630468;27;20096;-64
2022/01/10 03:29:54;;;;;;;16.55;8.15;;;19.40;64.00;;;;;;10578382;27;20103;-64
2022/01/10 03:34:59;;;;;;;15.32;8.27;;;19.40;64.00;;;;;;10611835;27;20039;-63
2022/01/10 03:40:05;;;;;;;15.88;7.78;;;19.40;64.20;;;;;;10611092;27;20388;-63
2022/01/10 03:45:14;;;;;;;13.40;8.32;;;19.30;64.20;;;;;;10610574;27;20450;-63
2022/01/10 03:50:21;;;;;;;12.95;8.57;;;19.30;64.30;;;;;;10630486;27;20039;-63
2022/01/10 03:55:30;;;;;;;13.88;8.05;;;19.30;64.30;;;;;;10629047;27;20047;-63
2022/01/10 04:00:38;;;;;;;11.90;7.65;;;19.30;64.30;;;;;;10611084;27;20403;-63
2022/01/10 04:05:43;;;;;;;12.85;8.13;;;19.30;64.30;;;;;;10628744;27;20039;-64
2022/01/10 04:10:49;;;;;;;12.68;8.05;;;19.30;64.30;;;;;;10610808;27;20104;-63
2022/01/10 04:15:54;;;;;;;19.30;7.30;;;19.30;64.20;;;;;;10628174;27;20054;-63
2022/01/10 04:21:00;;;;;;;13.93;8.23;;;19.30;64.20;;;;;;10609314;27;20116;-64
2022/01/10 04:26:05;;;;;;;16.33;8.40;;;19.40;64.20;;;;;;10609537;27;20039;-63
2022/01/10 04:31:12;;;;;;;15.65;7.40;;;19.50;64.20;;;;;;10580020;28;20055;-63
2022/01/10 04:36:18;;;;;;;13.98;7.72;;;19.60;64.10;;;;;;10566904;28;20088;-64
2022/01/10 04:41:26;;;;;;;13.90;7.07;;;19.60;64.00;;;;;;10566632;28;20052;-64
2022/01/10 04:46:34;;;;;;;17.10;6.90;;;19.80;64.00;;;;;;10566329;28;20067;-64
2022/01/10 04:51:40;;;;;;;13.55;6.97;;;19.80;63.80;;;;;;10565660;28;20047;-64
2022/01/10 04:56:46;;;;;;;14.27;7.75;;;19.90;63.90;;;;;;10566484;28;20039;-64
2022/01/10 05:01:53;;;;;;;22.10;7.32;;;20.00;63.80;;;;;;10565845;28;20423;-63
2022/01/10 05:07:02;;;;;;;15.65;7.80;;;20.10;63.80;;;;;;10566121;28;20039;-65
2022/01/10 05:12:09;;;;;;;12.60;7.33;;;20.10;63.70;;;;;;10564642;28;20096;-65
2022/01/10 05:17:19;;;;;;;11.18;7.03;;;20.10;63.60;;;;;;10582447;28;20400;-64
2022/01/10 05:22:24;;;;;;;10.20;6.68;;;20.30;63.60;;;;;;10548727;28;20054;-65
2022/01/10 05:27:29;;;;;;;17.63;7.85;;;20.30;63.60;;;;;;10565134;28;20044;-65
2022/01/10 05:32:41;;;;;;;9.57;6.60;;;20.40;63.50;;;;;;10564745;28;20412;-64
2022/01/10 05:38:07;;;;;;;17.17;7.20;;;20.40;63.50;;;;;;10582812;28;20097;-63
2022/01/10 05:43:15;;;;;;;11.93;6.65;;;20.50;63.60;;;;;;10563944;28;20389;-63
2022/01/10 05:48:26;;;;;;;11.57;7.00;;;20.50;63.60;;;;;;10564205;28;20392;-64
2022/01/10 05:53:36;;;;;;;14.43;6.95;;;20.60;63.80;;;;;;10563759;28;20048;-64
2022/01/10 05:58:44;;;;;;;12.95;6.35;;;20.70;63.60;;;;;;10563999;28;20040;-64
2022/01/10 06:03:50;;;;;;;10.25;6.32;;;20.70;63.60;;;;;;10564890;28;20035;-64
2022/01/10 06:09:01;;;;;;;18.40;6.95;;;20.80;63.60;;;;;;10564364;28;20084;-64
2022/01/10 06:14:07;;;;;;;10.57;6.75;;;20.80;63.50;;;;;;10581911;28;20085;-63
2022/01/10 06:19:14;;;;;;;14.50;6.88;;;20.80;63.50;;;;;;10563191;28;20090;-63
2022/01/10 06:24:28;;;;;;;19.83;7.28;;;20.90;63.40;;;;;;10581615;28;20441;-64
2022/01/10 06:29:34;;;;;;;18.13;5.77;;;20.90;63.30;;;;;;10581687;27;20047;-66
2022/01/10 06:34:39;;;;;;;15.75;5.55;;;20.80;63.30;;;;;;10621827;27;20051;-65
2022/01/10 06:39:46;;;;;;;15.40;5.45;;;20.80;63.40;;;;;;10569521;28;20484;-66
2022/01/10 06:44:54;;;;;;;9.02;4.07;;;20.80;63.40;;;;;;10587679;28;20069;-66
2022/01/10 06:49:59;;;;;;;7.70;4.57;;;20.80;63.30;;;;;;10571068;28;20081;-66
2022/01/10 06:55:17;;;;;;;;;;;20.80;63.10;;;;;;10572462;28;20047;-66
2022/01/10 07:00:22;;;;;;;7.40;4.35;;;20.80;62.90;;;;;;10569836;28;19920;-66
2022/01/10 07:05:38;;;;;;;9.35;4.85;;;20.80;62.80;;;;;;10570770;28;20039;-67
2022/01/10 07:10:52;;;;;;;6.72;4.40;;;20.80;62.80;;;;;;10570874;28;20035;-66
2022/01/10 07:15:58;;;;;;;8.13;5.05;;;20.80;62.70;;;;;;10570167;28;20476;-66
2022/01/10 07:21:03;;;;;;;8.98;4.82;;;20.70;62.70;;;;;;10571378;28;20105;-66
2022/01/10 07:26:09;;;;;;;8.60;4.50;;;20.70;62.60;;;;;;10570177;28;20044;-66
2022/01/10 07:31:14;;;;;;;8.32;5.18;;;20.60;62.60;;;;;;10614262;27;20051;-66
2022/01/10 07:36:23;;;;;;;7.72;5.03;;;20.60;62.50;;;;;;10629207;27;20059;-66
2022/01/10 07:41:28;;;;;;;8.70;5.20;;;20.50;62.50;;;;;;10627774;27;20104;-66
2022/01/10 07:46:36;;;;;;;7.35;4.93;;;20.50;62.50;;;;;;10629356;27;20084;-66
2022/01/10 07:51:44;;;;;;;7.68;5.13;;;20.50;63.10;;;;;;10628563;27;20496;-66
2022/01/10 07:56:49;;;;;;;8.63;5.30;;;20.40;62.40;;;;;;10630092;27;20043;-66
2022/01/10 08:01:53;;;;;;;8.35;5.00;;;20.40;62.40;;;;;;10629330;27;20529;-65
2022/01/10 08:06:59;;;;;;;8.55;5.15;;;20.30;62.40;;;;;;10628451;27;20096;-66
2022/01/10 08:12:07;;;;;;;9.40;5.57;;;20.30;62.40;;;;;;10610521;27;20446;-66
2022/01/10 08:17:12;;;;;;;9.98;5.68;;;20.30;63.00;;;;;;10627845;27;20104;-66
2022/01/10 08:22:18;;;;;;;9.32;5.70;;;20.30;62.40;;;;;;10627472;27;20100;-66
2022/01/10 08:27:28;;;;;;;8.38;5.30;;;20.30;62.40;;;;;;10609136;27;20069;-66
2022/01/10 08:32:33;;;;;;;7.95;5.68;;;20.20;62.40;;;;;;10627389;27;20051;-66
2022/01/10 08:37:38;;;;;;;11.00;6.13;;;20.20;62.40;;;;;;10626679;27;20487;-66
2022/01/10 08:42:44;;;;;;;7.93;4.72;;;20.30;62.40;;;;;;10626179;27;20080;-66
2022/01/10 08:47:54;;;;;;;8.90;5.43;;;20.30;62.40;;;;;;10626901;27;20438;-66
2022/01/10 08:53:00;;;;;;;7.47;5.20;;;20.40;62.30;;;;;;10625637;27;20047;-66
2022/01/10 08:58:05;;;;;;;7.88;5.18;;;20.40;62.20;;;;;;10625577;27;20047;-66
2022/01/10 09:03:12;;;;;;;9.13;5.47;;;20.50;62.20;;;;;;10626398;27;20068;-66
2022/01/10 09:08:20;;;;;;;7.95;5.13;;;20.60;62.10;;;;;;10626023;27;20043;-66
2022/01/10 09:13:25;;;;;;;10.45;6.15;;;20.70;62.10;;;;;;10625189;27;20051;-66
2022/01/10 09:18:30;;;;;;;7.53;5.22;;;20.70;62.10;;;;;;10625144;27;20047;-66
2022/01/10 09:23:35;;;;;;;8.48;5.57;;;20.70;62.00;;;;;;10626140;27;20065;-66
2022/01/10 09:28:42;;;;;;;7.63;5.45;;;20.80;61.90;;;;;;10624625;27;20047;-65
2022/01/10 09:33:55;;;;;;;8.15;5.55;;;20.80;61.90;;;;;;10625770;27;20099;-65
2022/01/10 09:39:02;;;;;;;8.10;5.53;;;20.80;61.80;;;;;;10625024;27;20559;-65
2022/01/10 09:44:07;;;;;;;8.40;5.90;;;20.80;61.80;;;;;;10639766;27;20032;-66
2022/01/10 09:49:18;;;;;;;7.82;5.68;;;20.90;61.80;;;;;;10625078;27;20114;-65
2022/01/10 09:54:23;;;;;;;8.95;5.68;;;20.90;61.80;;;;;;10624025;27;20121;-66
2022/01/10 09:59:31;;;;;;;9.13;6.10;;;20.90;61.80;;;;;;10590510;27;20092;-66
2022/01/10 10:04:37;;;;;;;8.82;5.93;;;20.90;61.70;;;;;;10622975;27;20112;-66
2022/01/10 10:09:42;;;;;;;6.97;5.20;;;20.90;61.70;;;;;;10624318;28;20092;-66
2022/01/10 10:14:51;;;;;;;7.97;5.72;;;20.90;61.70;;;;;;10623843;28;20100;-66
2022/01/10 10:20:10;;;;;;;8.65;5.85;;;20.90;61.70;;;;;;10624415;28;20054;-66
2022/01/10 10:25:33;;;;;;;8.90;5.95;;;20.90;61.70;;;;;;10624605;28;20046;-66
2022/01/10 10:30:39;;;;;;;7.45;5.28;;;20.90;61.70;;;;;;10624341;28;20115;-66
2022/01/10 10:35:53;;;;;;;8.10;5.97;;;20.90;61.60;;;;;;10605111;28;20503;-66
2022/01/10 10:41:02;;;;;;;8.55;5.75;;;20.90;61.60;;;;;;10623119;28;20076;-66
2022/01/10 10:46:13;;;;;;;7.57;4.93;;;20.90;61.50;;;;;;10622968;28;20047;-66
2022/01/10 10:51:18;;;;;;;9.25;5.80;;;20.90;61.60;;;;;;10623338;28;20092;-66
2022/01/10 10:56:23;;;;;;;8.65;5.90;;;20.90;61.50;;;;;;10622791;28;20051;-66
2022/01/10 11:01:28;;;;;;;7.57;5.35;;;20.90;61.50;;;;;;10623178;28;20438;-66
2022/01/10 11:06:34;;;;;;;8.68;6.10;;;20.80;61.50;;;;;;10623007;28;20036;-66
2022/01/10 11:11:42;;;;;;;8.68;5.65;;;20.80;61.40;;;;;;10622872;28;20068;-66
2022/01/10 11:16:55;;;;;;;10.07;5.90;;;20.80;61.40;;;;;;10630200;27;20400;-66
2022/01/10 11:22:06;;;;;;;7.93;5.20;;;20.80;61.40;;;;;;10630017;27;20119;-66
2022/01/10 11:27:44;;;;;;;7.38;5.47;;;20.80;61.40;;;;;;10630129;27;20039;-66
2022/01/10 11:32:57;;;;;;;8.55;5.53;;;20.80;61.40;;;;;;10612766;27;20115;-66
2022/01/10 11:38:35;;;;;;;8.75;6.35;;;20.80;61.40;;;;;;10628981;27;20051;-66
2022/01/10 11:44:03;;;;;;;8.80;6.13;;;20.80;61.40;;;;;;10629680;27;20112;-65
2022/01/10 11:49:28;;;;;;;8.40;5.50;;;20.70;61.30;;;;;;10610811;27;20381;-66
2022/01/10 11:54:39;;;;;;;7.75;5.50;;;20.70;61.30;;;;;;10629095;27;20043;-66
2022/01/10 11:59:46;;;;;;;7.72;5.38;;;20.70;61.40;;;;;;10629040;27;20395;-66
2022/01/10 12:05:02;;;;;;;9.63;6.20;;;20.70;61.30;;;;;;10610600;27;20469;-66
2022/01/10 12:10:08;;;;;;;8.73;5.75;;;20.60;61.30;;;;;;10627987;27;20101;-66
2022/01/10 12:15:13;;;;;;;8.10;6.13;;;20.60;61.30;;;;;;10627634;27;20043;-66
2022/01/10 12:20:18;;;;;;;8.70;5.85;;;20.60;61.30;;;;;;10627122;27;20076;-66
2022/01/10 12:25:24;;;;;;;7.75;5.50;;;20.50;61.20;;;;;;10627316;27;20437;-66
2022/01/10 12:30:30;;;;;;;7.20;4.88;;;20.50;61.30;;;;;;10628604;27;20055;-66
2022/01/10 12:35:35;;;;;;;8.52;6.10;;;20.50;61.30;;;;;;10609335;27;20051;-66
2022/01/10 12:40:40;;;;;;;7.53;5.13;;;20.50;61.40;;;;;;10627114;27;20120;-66
2022/01/10 12:45:46;;;;;;;8.32;5.60;;;20.40;61.30;;;;;;10626455;27;20072;-66
2022/01/10 12:50:54;;;;;;;7.57;5.43;;;20.40;61.40;;;;;;10626224;27;20166;-66
2022/01/10 12:56:03;;;;;;;7.22;5.82;;;20.30;61.40;;;;;;10626700;27;20046;-66
2022/01/10 13:01:11;;;;;;;7.75;5.95;;;20.20;61.30;;;;;;10625885;27;20412;-66
2022/01/10 13:06:17;;;;;;;8.88;5.88;;;20.20;61.30;;;;;;10625713;27;20446;-66
2022/01/10 13:11:30;;;;;;;9.05;5.82;;;20.20;61.30;;;;;;10626592;27;20478;-66
2022/01/10 13:16:57;;;;;;;8.45;5.82;;;20.20;61.40;;;;;;10625250;27;20051;-67
2022/01/10 13:22:10;;;;;;;7.72;5.40;;;20.20;61.40;;;;;;10625195;27;20108;-67
2022/01/10 13:27:21;;;;;;;8.45;6.05;;;20.20;61.40;;;;;;10625718;27;20416;-66
2022/01/10 13:32:34;;;;;;;8.07;5.82;;;20.30;61.40;;;;;;10625083;27;20047;-66
2022/01/10 13:37:44;;;;;;;8.25;5.50;;;20.30;61.30;;;;;;10625504;27;20039;-67
2022/01/10 13:43:04;;;;;;;8.32;5.80;;;20.40;61.30;;;;;;10606561;27;20065;-66
2022/01/10 13:48:25;;;;;;;7.35;5.65;;;20.50;61.20;;;;;;10624203;27;20092;-66
2022/01/10 13:53:43;;;;;;;7.20;5.47;;;20.50;61.10;;;;;;10623844;27;20475;-67
2022/01/10 13:58:53;;;;;;;8.43;5.95;;;20.60;61.10;;;;;;10624076;27;20127;-67
2022/01/10 14:03:59;;;;;;;8.55;5.72;;;20.70;61.00;;;;;;10625736;27;20035;-66
2022/01/10 14:09:06;;;;;;;8.25;5.53;;;20.70;61.00;;;;;;10624244;28;20043;-66
2022/01/10 14:14:11;;;;;;;7.75;5.90;;;20.80;61.00;;;;;;10624174;28;20407;-67
2022/01/10 14:19:19;;;;;;;8.68;5.97;;;20.90;61.00;;;;;;10624636;28;20095;-66
2022/01/10 14:24:24;;;;;;;;;;;20.90;60.90;;;;;;10624489;28;20046;-66
2022/01/10 14:29:32;;;;;;;7.30;5.50;;;20.90;60.80;;;;;;10623881;28;19919;-67
2022/01/10 14:34:36;;;;;;;7.20;5.38;;;21.00;60.80;;;;;;10624242;28;20480;-66
2022/01/10 14:39:44;;;;;;;7.25;5.60;;;21.00;60.70;;;;;;10624261;28;20043;-66
2022/01/10 14:44:49;;;;;;;7.68;5.63;;;21.00;60.70;;;;;;10623221;28;20408;-66
2022/01/10 14:49:54;;;;;;;7.28;5.10;;;21.10;60.70;;;;;;10628339;27;20056;-67
2022/01/10 14:54:59;;;;;;;8.13;5.30;;;21.20;61.30;;;;;;10613682;27;20047;-67
2022/01/10 15:00:06;;;;;;;8.13;5.57;;;21.20;60.60;;;;;;10631427;27;20479;-66
2022/01/10 15:05:11;;;;;;;8.18;5.43;;;21.20;60.60;;;;;;10630629;27;20047;-66
2022/01/10 15:10:20;;;;;;;7.82;5.38;;;21.20;60.50;;;;;;10632199;27;20064;-66
2022/01/10 15:15:28;;;;;;;6.00;4.82;;;21.30;60.50;;;;;;10630108;27;20051;-66
2022/01/10 15:20:36;;;;;;;7.45;5.53;;;21.30;60.50;;;;;;10613502;27;20039;-66
2022/01/10 15:25:45;;;;;;;8.13;5.40;;;21.30;60.40;;;;;;10611816;27;20104;-66
2022/01/10 15:30:50;;;;;;;7.03;4.75;;;21.40;60.40;;;;;;10629928;27;20062;-67
2022/01/10 15:35:54;;;;;;;8.52;5.65;;;21.40;60.40;;;;;;10611899;27;20058;-67
2022/01/10 15:41:00;;;;;;;7.43;5.50;;;21.40;60.40;;;;;;10629322;27;20059;-66
2022/01/10 15:46:05;;;;;;;7.13;5.10;;;21.50;60.50;;;;;;10628984;27;20556;-66
2022/01/10 15:51:22;;;;;;;6.80;4.82;;;21.50;60.40;;;;;;10628788;27;20047;-67
2022/01/10 15:56:26;;;;;;;6.18;4.90;;;21.50;60.30;;;;;;10628632;27;20475;-66
2022/01/10 16:01:31;;;;;;;6.35;4.68;;;21.50;60.30;;;;;;10627007;27;20100;-67
2022/01/10 16:06:37;;;;;;;6.65;5.10;;;21.50;60.30;;;;;;10628100;27;20047;-66
2022/01/10 16:11:42;;;;;;;7.32;5.43;;;21.50;60.30;;;;;;10627862;27;20067;-66
2022/01/10 16:16:51;;;;;;;7.05;5.20;;;21.50;60.30;;;;;;10627605;27;20051;-66
2022/01/10 16:22:07;;;;;;;7.18;5.20;;;21.40;60.20;;;;;;10609413;27;20069;-67
2022/01/10 16:27:12;;;;;;;9.90;5.43;;;21.40;60.20;;;;;;10609744;27;20043;-67
2022/01/10 16:32:17;;;;;;;9.32;4.88;;;21.40;60.20;;;;;;10626759;27;20054;-67
2022/01/10 16:37:25;;;;;;;10.15;5.47;;;21.30;60.20;;;;;;10627096;27;20396;-67
2022/01/10 16:42:29;;;;;;;9.85;5.63;;;21.30;60.20;;;;;;10627229;27;20043;-67
2022/01/10 16:47:35;;;;;;;8.15;5.63;;;21.30;60.20;;;;;;10626295;27;20043;-67
2022/01/10 16:52:42;;;;;;;9.80;5.95;;;21.20;60.20;;;;;;10627094;27;20091;-67
2022/01/10 16:57:48;;;;;;;14.55;7.00;;;21.20;60.20;;;;;;10625903;27;20073;-67
2022/01/10 17:02:53;;;;;;;10.20;6.32;;;21.20;60.20;;;;;;10608371;27;20073;-67
2022/01/10 17:07:58;;;;;;;12.95;7.70;;;21.10;60.20;;;;;;10626194;27;20549;-67
2022/01/10 17:13:03;;;;;;;14.85;7.20;;;21.10;60.20;;;;;;10625195;27;20108;-67
2022/01/10 17:18:09;;;;;;;13.88;7.07;;;21.00;60.20;;;;;;10626015;27;20131;-67
2022/01/10 17:23:15;;;;;;;12.80;7.20;;;21.00;60.20;;;;;;10624748;27;20047;-67
2022/01/10 17:28:20;;;;;;;11.50;7.15;;;21.00;60.20;;;;;;10624707;27;20116;-67
2022/01/10 17:33:25;;;;;;;11.77;7.18;;;20.90;60.20;;;;;;10625135;27;20047;-67
2022/01/10 17:38:33;;;;;;;12.93;7.40;;;20.90;60.20;;;;;;10624558;27;20104;-67
2022/01/10 17:43:45;;;;;;;11.90;7.57;;;20.80;60.20;;;;;;10591411;27;20054;-67
2022/01/10 17:48:51;;;;;;;11.43;7.03;;;20.80;60.20;;;;;;10624855;27;20453;-67
2022/01/10 17:54:21;;;;;;;10.02;6.47;;;20.70;60.20;;;;;;10624814;27;20092;-67
2022/01/10 17:59:26;;;;;;;14.90;7.13;;;20.70;60.20;;;;;;10624056;27;20043;-67
2022/01/10 18:04:32;;;;;;;11.05;6.90;;;20.60;60.20;;;;;;10624426;27;20047;-67
2022/01/10 18:09:37;;;;;;;12.20;6.63;;;20.60;60.20;;;;;;10623583;28;20099;-67
2022/01/10 18:14:42;;;;;;;12.23;7.97;;;20.50;60.20;;;;;;10624174;28;20073;-67
2022/01/10 18:19:48;;;;;;;11.32;7.55;;;20.50;60.20;;;;;;10623491;28;20388;-67
2022/01/10 18:24:54;;;;;;;12.35;7.63;;;20.50;60.20;;;;;;10568762;28;20052;-67
2022/01/10 18:29:59;;;;;;;12.73;7.78;;;20.40;60.20;;;;;;10560037;28;20116;-67
2022/01/10 18:35:29;;;;;;;15.25;8.35;;;20.40;60.20;;;;;;10613245;27;20399;-66
2022/01/10 18:40:36;;;;;;;15.45;7.32;;;20.30;60.30;;;;;;10629100;27;20039;-66
2022/01/10 18:45:41;;;;;;;10.95;6.60;;;20.30;60.70;;;;;;10630940;27;20043;-65
2022/01/10 18:50:47;;;;;;;14.90;7.13;;;20.40;60.90;;;;;;10630367;27;20064;-65
2022/01/10 18:55:51;;;;;;;9.80;6.63;;;20.40;61.00;;;;;;10627844;27;20047;-65
2022/01/10 19:00:56;;;;;;;11.10;6.63;;;20.50;61.10;;;;;;10630398;27;20035;-65
2022/01/10 19:06:08;;;;;;;10.57;6.75;;;20.70;61.20;;;;;;10596967;27;20068;-66
2022/01/10 19:11:13;;;;;;;14.88;7.78;;;20.80;61.20;;;;;;10630232;27;20047;-66
2022/01/10 19:16:19;;;;;;;13.55;7.20;;;20.80;61.10;;;;;;10612714;27;20503;-66
2022/01/10 19:21:26;;;;;;;16.98;8.32;;;20.80;61.00;;;;;;10629779;27;20050;-67
2022/01/10 19:26:34;;;;;;;13.57;7.47;;;20.90;61.00;;;;;;10626655;27;20055;-66
2022/01/10 19:31:39;;;;;;;12.80;7.40;;;20.90;61.00;;;;;;10603405;27;20093;-67
2022/01/10 19:36:46;;;;;;;13.52;7.75;;;21.00;61.00;;;;;;10586497;28;20392;-66
2022/01/10 19:41:50;;;;;;;11.88;7.63;;;21.10;61.00;;;;;;10585732;28;20089;-66
2022/01/10 19:46:56;;;;;;;13.40;7.43;;;21.20;61.10;;;;;;10583182;28;20044;-66
2022/01/10 19:52:02;;;;;;;14.40;7.40;;;21.30;61.10;;;;;;10586178;28;20063;-66
2022/01/10 19:57:07;;;;;;;12.55;7.60;;;21.30;61.10;;;;;;10568700;28;20500;-66
2022/01/10 20:02:12;;;;;;;17.27;8.30;;;21.30;61.10;;;;;;10569038;28;20093;-66
2022/01/10 20:07:17;;;;;;;12.38;7.57;;;21.40;61.00;;;;;;10568359;28;20043;-68
2022/01/10 20:12:22;;;;;;;10.10;6.20;;;21.40;61.10;;;;;;10551005;28;20052;-67
2022/01/10 20:17:26;;;;;;;12.98;6.55;;;21.40;61.10;;;;;;10585885;28;20491;-66
2022/01/10 20:22:34;;;;;;;10.88;5.85;;;21.40;61.00;;;;;;10585587;28;20117;-67
2022/01/10 20:27:42;;;;;;;;;;;21.40;61.00;;;;;;10585802;28;20408;-66
2022/01/10 20:32:47;;;;;;;11.27;6.45;;;21.50;60.90;;;;;;10621489;27;19919;-65
2022/01/10 20:37:52;;;;;;;13.07;6.75;;;21.50;60.80;;;;;;10608697;27;20095;-66
2022/01/10 20:43:03;;;;;;;12.05;7.40;;;21.50;60.90;;;;;;10628005;27;20479;-66
2022/01/10 20:48:08;;;;;;;15.27;7.68;;;21.50;60.90;;;;;;10626771;27;20047;-67
2022/01/10 20:53:12;;;;;;;15.18;8.13;;;21.50;60.90;;;;;;10626888;27;20072;-68
2022/01/10 20:58:17;;;;;;;14.48;8.20;;;21.40;60.90;;;;;;10626579;27;20047;-66
2022/01/10 21:03:22;;;;;;;14.50;8.43;;;21.40;61.00;;;;;;10626526;27;20085;-67
2022/01/10 21:08:33;;;;;;;14.27;9.00;;;21.40;60.90;;;;;;10625714;27;20100;-67
2022/01/10 21:13:39;;;;;;;16.40;8.95;;;21.40;61.00;;;;;;10607591;27;20051;-67
2022/01/10 21:18:43;;;;;;;15.57;9.25;;;21.40;61.00;;;;;;10626379;27;20039;-67
2022/01/10 21:23:49;;;;;;;14.95;9.30;;;21.40;61.00;;;;;;10625118;27;20051;-68
2022/01/10 21:28:53;;;;;;;18.00;10.57;;;21.40;61.00;;;;;;10588236;27;20056;-67
2022/01/10 21:34:11;;;;;;;19.10;10.50;;;21.30;61.00;;;;;;10583143;28;20039;-67
2022/01/10 21:39:16;;;;;;;20.50;11.07;;;21.30;61.10;;;;;;10581489;28;20073;-67
2022/01/10 21:44:21;;;;;;;39.25;22.33;;;21.30;61.10;;;;;;10578787;28;20100;-66
2022/01/10 21:49:26;;;;;;;74.47;37.17;;;21.00;59.20;;;;;;10580704;28;20376;-67
2022/01/10 21:54:34;;;;;;;57.08;26.83;;;20.30;55.30;;;;;;10580116;28;20048;-67
2022/01/10 21:59:39;;;;;;;47.30;23.08;;;20.50;58.40;;;;;;10580659;28;20048;-66
2022/01/10 22:04:44;;;;;;;34.05;18.77;;;20.60;59.00;;;;;;10581320;28;20035;-65
2022/01/10 22:09:50;;;;;;;26.92;15.23;;;20.60;58.50;;;;;;10563564;28;20085;-64
2022/01/10 22:14:56;;;;;;;23.95;13.73;;;20.60;58.50;;;;;;10583248;28;20039;-64
2022/01/10 22:20:03;;;;;;;24.48;11.80;;;20.60;58.70;;;;;;10581759;28;20040;-64
2022/01/10 22:25:18;;;;;;;19.95;10.50;;;20.60;58.90;;;;;;10582100;28;20035;-64
2022/01/10 22:30:23;;;;;;;17.33;8.52;;;20.50;59.10;;;;;;10582196;28;20059;-65
2022/01/10 22:35:28;;;;;;;20.73;9.43;;;20.50;59.40;;;;;;10580751;28;20051;-64
2022/01/10 22:40:37;;;;;;;27.52;7.72;;;20.40;59.60;;;;;;10581181;28;20035;-65
2022/01/10 22:45:42;;;;;;;22.55;7.55;;;20.40;59.80;;;;;;10580562;28;20051;-65
2022/01/10 22:50:47;;;;;;;16.33;6.32;;;20.40;60.00;;;;;;10580371;28;20043;-65
2022/01/10 22:55:52;;;;;;;10.25;6.10;;;20.40;60.20;;;;;;10580344;28;20401;-65
2022/01/10 23:00:58;;;;;;;10.18;5.75;;;20.40;60.30;;;;;;10580845;28;20047;-65
2022/01/10 23:06:04;;;;;;;11.75;5.68;;;20.40;60.40;;;;;;10580792;28;20048;-65
2022/01/10 23:11:10;;;;;;;9.30;5.25;;;20.30;60.40;;;;;;10584868;28;20400;-65
2022/01/10 23:16:15;;;;;;;8.52;5.38;;;20.30;60.60;;;;;;10588421;28;20046;-65
2022/01/10 23:21:20;;;;;;;12.60;6.50;;;20.20;60.70;;;;;;10587410;28;20566;-66
2022/01/10 23:26:25;;;;;;;15.60;7.10;;;20.20;61.00;;;;;;10587511;28;20048;-65
2022/01/10 23:31:32;;;;;;;13.43;7.65;;;20.20;61.10;;;;;;10586996;28;20055;-66
2022/01/10 23:36:38;;;;;;;;;;;20.10;61.20;;;;;;10587299;28;20097;-66
2022/01/10 23:41:44;;;;;;;16.48;5.85;;;20.10;61.20;;;;;;10586617;28;19919;-66
2022/01/10 23:46:51;;;;;;;11.95;6.85;;;20.20;61.10;;;;;;10587065;28;20545;-66
2022/01/10 23:51:56;;;;;;;11.07;5.82;;;20.10;61.10;;;;;;10586901;28;20043;-66
2022/01/10 23:57:03;;;;;;;10.77;5.85;;;20.10;61.10;;;;;;10586039;28;20058;-66
